Huntley, Montana
Current Conditions -  °F | °C
As of 1:53 PM on Saturday 20 Dec 2014 (Local Time) from KBIL Reporting Station
Broken Clouds Broken Clouds  
Wind Chill: 30°   Ceiling: 20000
Heat Index: 37°   Visibility: 10mi
Dew Point: 24°   Wind: 10mph
Humidity: 59%   Direction: 240°WSW
Pressure: 29.85"   Gusts: NA
Location:  45.9°N, 108.3°W
Report Text: KBIL 202053Z 24009KT 10SM SCT100 SCT150 BKN200 03/M04 A2985 RMK AO2 SLP127 ACSL DSNT ALQDS T00281044 58022
Loading
Personal Weather Stations






























Interactive Weather Map New forecast layout! Learn more

10-Day Weather Forecast

Advertisements
Track Severe Weather on mobile